Time;durP1;ratioP1;P1;durP2;ratioP2;P2;SDS_P1;SDS_P2;PMS_P1;PMS_P2;Temp;Humidity;BMP_temperature;BMP_pressure;BME280_temperature;BME280_humidity;BME280_pressure;Samples;Min_cycle;Max_cycle;Signal;HPM_P1;HPM_P2
2022/12/01 00:05:32;;;;;;;25.30;11.90;;;;;;;3.97;85.37;101904.60;661370;1310;138677;-75
2022/12/01 00:20:35;;;;;;;22.20;13.00;;;;;;;3.98;85.52;101901.09;661641;1304;139086;-75
2022/12/01 00:35:40;;;;;;;46.60;22.70;;;;;;;3.87;85.27;101903.36;661272;1312;138607;-75
2022/12/01 00:50:44;;;;;;;36.00;17.30;;;;;;;4.02;85.57;101908.57;661522;1310;138521;-75
2022/12/01 01:05:48;;;;;;;22.70;12.80;;;;;;;4.06;85.52;101904.30;661264;1310;138576;-75
2022/12/01 01:21:03;;;;;;;18.10;10.50;;;;;;;4.03;85.63;101895.70;661396;1310;139467;-75
2022/12/01 01:36:06;;;;;;;27.20;15.20;;;;;;;3.99;84.62;101884.78;661309;1311;138790;-75
2022/12/01 01:51:12;;;;;;;91.40;27.40;;;;;;;3.94;84.48;101878.89;661671;1310;138515;-75
2022/12/01 02:06:15;;;;;;;20.60;11.90;;;;;;;4.04;84.56;101875.94;661310;1310;138521;-75
2022/12/01 02:21:27;;;;;;;32.40;18.50;;;;;;;4.24;84.17;101878.52;661244;1310;138618;-75
2022/12/01 02:36:36;;;;;;;12.10;7.80;;;;;;;4.18;84.06;101880.13;661239;1308;199877;-75
2022/12/01 02:51:43;;;;;;;11.80;7.60;;;;;;;4.10;84.34;101880.21;661392;1309;138401;-75
2022/12/01 03:07:18;;;;;;;10.60;6.70;;;;;;;4.12;83.81;101877.56;661174;1310;138388;-75
2022/12/01 03:22:24;;;;;;;9.10;6.70;;;;;;;4.09;83.67;101877.33;661591;1310;138358;-75
2022/12/01 03:37:35;;;;;;;8.40;5.50;;;;;;;4.02;83.79;101879.65;661298;1310;139043;-75
2022/12/01 03:53:03;;;;;;;8.30;6.00;;;;;;;3.94;84.10;101885.46;661231;1310;138205;-74
2022/12/01 04:08:06;;;;;;;;;;;;;;;4.00;83.71;101888.02;661329;1310;138535;-75
2022/12/01 04:23:10;;;;;;;6.30;4.30;;;;;;;4.04;82.77;101883.06;661242;1310;124601;-75
2022/12/01 04:38:13;;;;;;;6.30;4.90;;;;;;;3.94;82.58;101879.57;661006;1310;138424;-74
2022/12/01 04:53:16;;;;;;;6.20;3.90;;;;;;;3.93;82.37;101869.73;661456;1296;138309;-75
2022/12/01 05:08:20;;;;;;;129.70;49.50;;;;;;;3.98;82.36;101877.36;661106;1304;138185;-75
2022/12/01 05:23:28;;;;;;;14.00;6.10;;;;;;;3.99;82.78;101876.30;661144;1310;138639;-75
2022/12/01 05:38:31;;;;;;;85.00;33.50;;;;;;;4.03;82.54;101882.56;661432;1310;139718;-75
2022/12/01 05:53:34;;;;;;;29.00;12.80;;;;;;;4.07;82.69;101888.15;661178;1310;138603;-75
2022/12/01 06:08:38;;;;;;;45.50;22.00;;;;;;;4.11;83.54;101890.06;661360;1312;138625;-75
2022/12/01 06:23:41;;;;;;;40.20;18.60;;;;;;;4.02;84.20;101895.77;660994;1311;138538;-75
2022/12/01 06:38:44;;;;;;;73.60;34.20;;;;;;;4.06;84.63;101903.08;661257;1295;138675;-75
2022/12/01 06:53:55;;;;;;;33.90;16.60;;;;;;;4.11;84.28;101910.33;660758;1309;138982;-75
2022/12/01 07:09:05;;;;;;;54.00;25.40;;;;;;;4.12;84.58;101913.41;661212;1308;139570;-75
2022/12/01 07:24:11;;;;;;;53.80;25.90;;;;;;;4.18;84.69;101909.91;661195;1310;138572;-75
2022/12/01 07:39:15;;;;;;;22.90;12.00;;;;;;;4.22;85.49;101914.28;661180;1310;138503;-75
2022/12/01 07:54:20;;;;;;;308.80;130.30;;;;;;;4.28;85.84;101911.99;661364;1311;138431;-74
2022/12/01 08:09:23;;;;;;;406.70;160.20;;;;;;;4.48;86.31;101904.71;661299;1305;139037;-75
2022/12/01 08:24:26;;;;;;;173.40;73.40;;;;;;;4.47;86.97;101902.27;660942;1308;139290;-75
2022/12/01 08:39:30;;;;;;;180.80;76.00;;;;;;;4.58;86.49;101905.03;661149;1299;138708;-75
2022/12/01 08:54:33;;;;;;;43.90;22.60;;;;;;;4.75;85.38;101909.05;661312;1305;138762;-75
2022/12/01 09:09:37;;;;;;;32.40;15.50;;;;;;;4.92;84.89;101913.11;661444;1305;138678;-75
2022/12/01 09:24:41;;;;;;;49.00;21.40;;;;;;;5.22;83.94;101908.66;660958;1307;141575;-75
2022/12/01 09:39:44;;;;;;;74.70;32.60;;;;;;;5.57;82.88;101895.10;661180;1312;138732;-76
2022/12/01 09:54:48;;;;;;;23.30;14.20;;;;;;;5.90;82.85;101886.79;660918;1311;138576;-75
2022/12/01 10:09:58;;;;;;;37.10;16.40;;;;;;;5.86;81.28;101877.07;661277;1304;138652;-75
2022/12/01 10:25:17;;;;;;;25.80;13.50;;;;;;;5.63;80.55;101875.23;661073;1298;138463;-75
2022/12/01 10:40:22;;;;;;;180.70;70.40;;;;;;;5.43;80.81;101877.79;661099;1307;138566;-75
2022/12/01 10:55:31;;;;;;;134.40;50.60;;;;;;;5.59;81.92;101873.67;660955;1310;138846;-75
2022/12/01 11:10:36;;;;;;;58.40;30.50;;;;;;;5.45;83.20;101877.70;661079;1309;138854;-74
2022/12/01 11:25:40;;;;;;;139.20;60.30;;;;;;;5.36;83.28;101875.30;661095;1310;138505;-75
2022/12/01 11:40:49;;;;;;;79.90;34.50;;;;;;;5.36;84.60;101863.33;661497;1310;138794;-75
2022/12/01 11:56:13;;;;;;;106.10;46.70;;;;;;;5.33;84.89;101855.30;661477;1310;138517;-75
2022/12/01 12:11:30;;;;;;;75.30;34.90;;;;;;;5.39;85.46;101846.55;661283;1305;138620;-75
2022/12/01 12:27:10;;;;;;;61.60;33.30;;;;;;;5.35;85.29;101835.80;661330;1310;138585;-75
2022/12/01 12:42:37;;;;;;;120.80;57.90;;;;;;;5.36;85.47;101827.41;660905;1310;138697;-74
2022/12/01 12:57:48;;;;;;;550.20;197.70;;;;;;;5.38;86.21;101820.73;661418;1309;138857;-75
2022/12/01 13:13:05;;;;;;;431.10;150.30;;;;;;;5.26;86.75;101808.23;660201;1312;139171;-77
2022/12/01 13:28:19;;;;;;;218.40;94.50;;;;;;;5.04;88.00;101803.55;660454;1307;139240;-76
2022/12/01 13:43:22;;;;;;;128.60;58.20;;;;;;;5.06;88.94;101806.25;659524;1311;139337;-77
2022/12/01 13:58:32;;;;;;;88.30;40.50;;;;;;;5.16;88.79;101804.63;660557;1307;139006;-76
2022/12/01 14:13:49;;;;;;;177.50;75.80;;;;;;;4.99;89.66;101804.12;660441;1312;138783;-76
2022/12/01 14:29:02;;;;;;;106.20;49.90;;;;;;;5.04;89.92;101798.90;660530;1313;197054;-76
2022/12/01 14:44:13;;;;;;;134.50;57.50;;;;;;;5.12;89.42;101795.42;661594;1305;138863;-76
2022/12/01 14:59:23;;;;;;;95.20;46.20;;;;;;;5.26;89.27;101784.64;660257;1312;140244;-76
2022/12/01 15:14:26;;;;;;;131.70;61.50;;;;;;;5.26;88.63;101784.30;660599;1310;138760;-76
2022/12/01 15:29:36;;;;;;;121.30;52.80;;;;;;;5.14;89.65;101775.39;660600;1308;138745;-75
2022/12/01 15:44:39;;;;;;;149.90;70.80;;;;;;;5.18;89.70;101774.91;661795;1305;138859;-76
2022/12/01 15:59:45;;;;;;;131.10;56.60;;;;;;;5.20;89.75;101769.09;660386;1308;138749;-76
2022/12/01 16:15:12;;;;;;;137.50;50.40;;;;;;;5.21;89.12;101771.32;660069;1312;139066;-75
2022/12/01 16:30:21;;;;;;;147.80;54.50;;;;;;;4.93;89.75;101778.16;660731;1313;139550;-75
2022/12/01 16:45:25;;;;;;;97.80;40.90;;;;;;;4.60;89.93;101783.27;660469;1302;138789;-75
2022/12/01 17:00:29;;;;;;;73.40;36.20;;;;;;;4.61;89.82;101774.26;659866;1313;138568;-75
2022/12/01 17:15:33;;;;;;;174.50;62.80;;;;;;;4.57;89.82;101764.89;660358;1312;138717;-74
2022/12/01 17:30:37;;;;;;;127.90;49.50;;;;;;;4.59;89.90;101762.37;659901;1313;139132;-74
2022/12/01 17:45:41;;;;;;;102.30;36.60;;;;;;;4.39;89.44;101761.22;660274;1309;138709;-75
2022/12/01 18:00:47;;;;;;;166.50;58.30;;;;;;;4.33;89.35;101769.78;660473;1310;138615;-75
2022/12/01 18:15:51;;;;;;;160.90;51.80;;;;;;;4.18;88.71;101768.23;660006;1302;138794;-74
2022/12/01 18:30:55;;;;;;;151.00;51.10;;;;;;;4.13;89.56;101762.88;660656;1312;138904;-74
2022/12/01 18:46:03;;;;;;;275.10;80.70;;;;;;;4.07;89.14;101768.66;660352;1312;139464;-74
2022/12/01 19:01:19;;;;;;;285.00;87.90;;;;;;;4.15;88.00;101770.78;660065;1310;138843;-74
2022/12/01 19:16:23;;;;;;;76.80;30.30;;;;;;;4.15;87.42;101767.51;659221;1309;138732;-74
2022/12/01 19:31:28;;;;;;;63.20;28.20;;;;;;;3.87;86.65;101763.85;659700;1312;138619;-74
2022/12/01 19:46:32;;;;;;;162.20;51.10;;;;;;;3.75;86.52;101763.59;660239;1313;138544;-74
2022/12/01 20:01:36;;;;;;;86.60;35.50;;;;;;;3.63;85.34;101760.21;660070;1312;138751;-74
2022/12/01 20:16:40;;;;;;;119.70;41.70;;;;;;;3.51;84.39;101765.11;660254;1297;138574;-75
2022/12/01 20:31:44;;;;;;;169.00;53.50;;;;;;;3.32;82.64;101774.39;660913;1311;138871;-75
2022/12/01 20:46:48;;;;;;;46.40;20.60;;;;;;;3.08;81.30;101781.26;660469;1311;138771;-75
2022/12/01 21:01:51;;;;;;;43.60;17.20;;;;;;;2.90;81.13;101782.17;659904;1313;138959;-75
2022/12/01 21:17:01;;;;;;;118.20;38.60;;;;;;;2.76;80.72;101787.46;659956;1313;138566;-74
2022/12/01 21:32:12;;;;;;;89.10;35.00;;;;;;;2.84;80.54;101790.14;659299;1306;138722;-74
2022/12/01 21:47:26;;;;;;;204.00;61.40;;;;;;;2.84;80.27;101791.54;659929;1313;139911;-74
2022/12/01 22:02:50;;;;;;;226.00;68.70;;;;;;;2.73;80.09;101793.76;659541;1313;138896;-74
2022/12/01 22:17:55;;;;;;;47.80;20.80;;;;;;;2.53;79.04;101794.39;660684;1312;138842;-74
2022/12/01 22:33:09;;;;;;;76.20;29.20;;;;;;;2.48;78.19;101789.02;660580;1312;138485;-74
2022/12/01 22:48:37;;;;;;;40.50;17.30;;;;;;;2.49;78.29;101780.33;660770;1312;139476;-74
2022/12/01 23:03:40;;;;;;;46.30;20.20;;;;;;;2.48;78.08;101758.61;660403;1311;139171;-74
2022/12/01 23:18:44;;;;;;;38.20;16.40;;;;;;;2.51;78.08;101753.34;660434;1313;138698;-74
2022/12/01 23:33:47;;;;;;;29.10;14.10;;;;;;;2.46;78.04;101744.33;660408;1312;141224;-75
2022/12/01 23:48:57;;;;;;;44.20;19.90;;;;;;;2.38;77.57;101745.43;660348;1313;138658;-74
